Time;durP1;ratioP1;P1;durP2;ratioP2;P2;SDS_P1;SDS_P2;PMS_P1;PMS_P2;Temp;Humidity;BMP_temperature;BMP_pressure;BME280_temperature;BME280_humidity;BME280_pressure;Samples;Min_cycle;Max_cycle;Signal;HPM_P1;HPM_P2
2023/04/05 00:00:29;;;;;;;13.55;10.07;;;11.00;74.50;;;;;;4994309;28;20030;-73
2023/04/05 00:02:58;;;;;;;17.63;10.50;;;11.00;75.20;;;;;;4994149;28;20113;-72
2023/04/05 00:05:33;;;;;;;12.98;9.70;;;11.00;75.50;;;;;;4995294;28;20452;-72
2023/04/05 00:08:00;;;;;;;15.32;9.40;;;11.00;75.90;;;;;;4995402;28;20027;-72
2023/04/05 00:10:30;;;;;;;13.43;10.18;;;11.00;75.90;;;;;;4995351;28;20022;-73
2023/04/05 00:12:56;;;;;;;14.90;9.63;;;10.90;75.90;;;;;;4995209;28;20038;-73
2023/04/05 00:15:22;;;;;;;12.68;9.68;;;10.90;76.20;;;;;;4995406;28;20070;-72
2023/04/05 00:17:48;;;;;;;14.93;9.85;;;10.90;76.30;;;;;;4977834;28;20054;-72
2023/04/05 00:20:13;;;;;;;13.60;9.73;;;10.90;76.20;;;;;;4994933;28;20030;-72
2023/04/05 00:22:42;;;;;;;15.13;9.95;;;10.80;76.30;;;;;;4995347;28;20033;-72
2023/04/05 00:25:08;;;;;;;12.15;9.43;;;10.80;76.20;;;;;;4995061;28;20014;-71
2023/04/05 00:27:33;;;;;;;15.60;10.48;;;10.70;76.60;;;;;;4994843;28;20092;-72
2023/04/05 00:30:00;;;;;;;15.75;10.98;;;10.70;76.10;;;;;;4995017;28;20471;-72
2023/04/05 00:32:25;;;;;;;16.17;11.90;;;10.70;76.30;;;;;;4994732;28;20034;-71
2023/04/05 00:34:51;;;;;;;16.40;11.90;;;10.70;76.70;;;;;;4994718;28;20388;-73
2023/04/05 00:37:16;;;;;;;13.88;11.35;;;10.70;77.00;;;;;;4995091;28;20038;-72
2023/04/05 00:39:42;;;;;;;16.55;13.07;;;10.70;76.90;;;;;;4994875;28;20026;-72
2023/04/05 00:42:08;;;;;;;16.20;12.50;;;10.70;76.90;;;;;;4977299;28;20027;-72
2023/04/05 00:44:34;;;;;;;14.50;12.75;;;10.70;77.20;;;;;;4994686;28;20018;-71
2023/04/05 00:47:04;;;;;;;14.73;11.63;;;10.60;77.00;;;;;;5010320;28;20051;-72
2023/04/05 00:49:31;;;;;;;15.85;12.95;;;10.60;77.40;;;;;;5012172;28;20026;-72
2023/04/05 00:51:58;;;;;;;17.30;12.80;;;10.60;77.60;;;;;;5011739;28;20435;-72
2023/04/05 00:54:28;;;;;;;18.27;12.43;;;10.60;77.70;;;;;;5013558;28;20097;-73
2023/04/05 00:56:58;;;;;;;17.52;12.15;;;10.60;77.80;;;;;;5012469;28;20376;-71
2023/04/05 00:59:24;;;;;;;13.18;10.90;;;10.60;78.20;;;;;;5012729;28;20072;-72
2023/04/05 01:01:59;;;;;;;14.63;12.13;;;10.50;77.60;;;;;;5013778;28;20038;-73
2023/04/05 01:04:27;;;;;;;17.00;11.98;;;10.60;77.90;;;;;;5012603;28;20461;-71
2023/04/05 01:07:06;;;;;;;15.40;11.82;;;10.40;78.00;;;;;;5013892;28;20494;-72
2023/04/05 01:09:58;;;;;;;15.32;12.23;;;10.40;78.20;;;;;;5013809;28;20105;-72
2023/04/05 01:12:32;;;;;;;17.65;11.70;;;10.50;78.60;;;;;;5012702;28;20034;-71
2023/04/05 01:14:58;;;;;;;12.98;9.90;;;10.50;78.30;;;;;;5013511;28;20029;-71
2023/04/05 01:17:35;;;;;;;15.95;11.43;;;10.40;78.70;;;;;;4996202;28;20051;-71
2023/04/05 01:20:09;;;;;;;16.13;10.70;;;10.40;78.70;;;;;;5013595;28;20467;-72
2023/04/05 01:23:06;;;;;;;19.02;11.82;;;10.40;78.60;;;;;;5012458;28;20112;-72
2023/04/05 01:25:59;;;;;;;12.77;9.98;;;10.40;78.30;;;;;;5013527;28;20022;-71
2023/04/05 01:28:59;;;;;;;13.93;10.02;;;10.30;78.20;;;;;;5013687;28;20376;-72
2023/04/05 01:31:44;;;;;;;15.05;10.68;;;10.30;78.70;;;;;;5013362;28;20029;-72
2023/04/05 01:34:24;;;;;;;12.98;9.93;;;10.40;78.80;;;;;;5013391;28;20044;-72
2023/04/05 01:36:55;;;;;;;15.63;10.48;;;10.40;78.60;;;;;;5013337;28;20105;-72
2023/04/05 01:39:23;;;;;;;16.27;10.18;;;10.30;79.20;;;;;;5013528;28;20025;-72
2023/04/05 01:41:48;;;;;;;14.43;10.35;;;10.30;79.10;;;;;;5013387;28;20490;-71
2023/04/05 01:44:14;;;;;;;13.85;10.57;;;10.30;79.20;;;;;;4995599;28;20049;-71
2023/04/05 01:46:40;;;;;;;16.35;10.95;;;10.30;79.00;;;;;;5012866;28;20479;-71
2023/04/05 01:49:06;;;;;;;17.50;10.65;;;10.20;79.00;;;;;;5011228;28;20031;-73
2023/04/05 01:51:32;;;;;;;16.33;10.30;;;10.20;79.00;;;;;;5011061;28;20033;-71
2023/04/05 01:53:57;;;;;;;14.90;10.23;;;10.20;79.10;;;;;;5011337;28;20045;-71
2023/04/05 01:56:23;;;;;;;16.77;10.68;;;10.10;79.20;;;;;;5011124;28;20022;-71
2023/04/05 01:58:48;;;;;;;14.93;10.65;;;10.10;79.40;;;;;;5012774;28;20475;-71
2023/04/05 02:01:14;;;;;;;16.38;10.30;;;10.10;79.50;;;;;;5012756;28;20498;-72
2023/04/05 02:03:39;;;;;;;16.15;10.15;;;10.10;79.70;;;;;;5011760;28;20033;-71
2023/04/05 02:06:05;;;;;;;14.98;10.85;;;10.10;79.50;;;;;;5012341;28;20053;-72
2023/04/05 02:08:31;;;;;;;17.02;10.70;;;10.00;79.80;;;;;;5013029;28;20037;-72
2023/04/05 02:10:56;;;;;;;16.15;10.65;;;10.10;80.10;;;;;;5012803;28;20049;-72
2023/04/05 02:13:22;;;;;;;16.05;10.45;;;10.10;80.10;;;;;;5012949;28;20109;-71
2023/04/05 02:15:49;;;;;;;17.15;11.10;;;10.00;80.00;;;;;;5012262;28;20092;-72
2023/04/05 02:18:15;;;;;;;19.33;11.40;;;10.00;80.20;;;;;;5012878;28;20108;-72
2023/04/05 02:20:41;;;;;;;15.40;10.88;;;10.00;80.20;;;;;;5012784;28;20050;-71
2023/04/05 02:23:07;;;;;;;15.63;10.38;;;10.00;80.30;;;;;;5011636;28;20033;-73
2023/04/05 02:25:33;;;;;;;18.85;10.95;;;9.90;80.00;;;;;;5012887;28;20018;-72
2023/04/05 02:27:58;;;;;;;15.30;10.95;;;10.00;80.50;;;;;;5007476;28;20490;-71
2023/04/05 02:30:25;;;;;;;17.83;11.38;;;9.90;80.40;;;;;;5008317;28;20434;-71
2023/04/05 02:32:50;;;;;;;15.93;10.98;;;10.00;79.90;;;;;;4993894;28;20124;-71
2023/04/05 02:35:16;;;;;;;20.77;12.27;;;9.90;80.30;;;;;;5009538;28;20089;-72
2023/04/05 02:37:42;;;;;;;17.13;12.10;;;10.00;80.10;;;;;;5012074;28;20113;-72
2023/04/05 02:40:13;;;;;;;19.05;12.50;;;10.00;80.10;;;;;;5012496;28;20034;-72
2023/04/05 02:42:39;;;;;;;15.70;12.10;;;9.90;80.30;;;;;;5011800;28;20018;-72
2023/04/05 02:45:07;;;;;;;12.63;10.45;;;9.90;80.40;;;;;;5012222;28;20123;-71
2023/04/05 02:47:33;;;;;;;16.60;11.02;;;9.90;80.80;;;;;;5012636;28;20022;-72
2023/04/05 02:49:58;;;;;;;14.75;10.75;;;9.80;80.80;;;;;;5012523;28;20037;-72
2023/04/05 02:52:24;;;;;;;15.30;10.75;;;9.80;81.10;;;;;;5012451;28;20472;-70
2023/04/05 02:54:49;;;;;;;13.48;10.60;;;9.90;81.10;;;;;;5012708;28;20061;-72
2023/04/05 02:57:15;;;;;;;15.90;11.27;;;9.90;80.80;;;;;;5012400;28;20033;-72
2023/04/05 02:59:41;;;;;;;15.13;11.02;;;9.80;81.20;;;;;;5012048;28;20460;-71
2023/04/05 03:02:08;;;;;;;19.17;11.48;;;9.90;81.00;;;;;;4994829;28;20467;-72
2023/04/05 03:04:34;;;;;;;29.13;20.40;;;9.80;81.30;;;;;;4995005;28;20028;-71
2023/04/05 03:07:03;;;;;;;20.10;14.52;;;9.80;81.90;;;;;;5012295;28;20026;-71
2023/04/05 03:09:32;;;;;;;18.25;12.63;;;9.80;81.30;;;;;;4994788;28;20378;-72
2023/04/05 03:12:04;;;;;;;16.25;11.70;;;9.80;81.50;;;;;;5012032;28;20083;-71
2023/04/05 03:14:30;;;;;;;16.35;12.52;;;9.80;81.60;;;;;;5012117;28;20049;-71
2023/04/05 03:16:56;;;;;;;14.52;12.30;;;9.80;81.40;;;;;;5012060;28;20402;-71
2023/04/05 03:19:22;;;;;;;17.15;12.05;;;9.80;81.30;;;;;;5012398;28;20472;-72
2023/04/05 03:21:48;;;;;;;15.77;11.77;;;9.70;81.50;;;;;;5012226;28;20383;-72
2023/04/05 03:24:15;;;;;;;19.83;12.57;;;9.70;81.70;;;;;;5012103;28;20029;-71
2023/04/05 03:26:42;;;;;;;19.70;11.82;;;9.70;81.90;;;;;;5012359;28;20460;-71
2023/04/05 03:29:08;;;;;;;19.35;11.70;;;9.70;81.80;;;;;;5015334;28;20061;-71
2023/04/05 03:31:34;;;;;;;18.20;12.23;;;9.60;82.00;;;;;;5014230;28;20064;-71
2023/04/05 03:33:59;;;;;;;14.68;11.25;;;9.60;81.90;;;;;;4996672;28;20029;-72
2023/04/05 03:36:27;;;;;;;17.85;12.05;;;9.60;82.00;;;;;;4997540;28;20025;-71
2023/04/05 03:38:54;;;;;;;14.90;11.18;;;9.60;82.10;;;;;;5015354;28;20022;-71
2023/04/05 03:41:20;;;;;;;15.68;12.18;;;9.50;82.10;;;;;;5015363;28;20064;-72
2023/04/05 03:43:46;;;;;;;15.63;10.80;;;9.50;82.10;;;;;;5014522;28;20026;-71
2023/04/05 03:46:11;;;;;;;17.77;12.13;;;9.50;82.30;;;;;;5014852;28;20075;-71
2023/04/05 03:48:37;;;;;;;17.50;11.15;;;9.50;82.20;;;;;;5015354;28;20109;-71
2023/04/05 03:51:02;;;;;;;16.35;11.80;;;9.50;82.10;;;;;;5015251;28;20415;-72
2023/04/05 03:53:28;;;;;;;14.45;11.20;;;9.40;82.00;;;;;;5015307;28;20570;-71
2023/04/05 03:55:54;;;;;;;14.75;11.57;;;9.50;82.40;;;;;;4997749;28;20037;-72
2023/04/05 03:58:20;;;;;;;16.38;11.52;;;9.40;82.20;;;;;;5014831;28;20054;-70
2023/04/05 04:00:46;;;;;;;17.52;11.95;;;9.40;82.30;;;;;;5015228;28;20025;-70
2023/04/05 04:03:12;;;;;;;16.70;11.13;;;9.40;82.50;;;;;;5015177;28;20077;-72
2023/04/05 04:05:38;;;;;;;13.52;11.27;;;9.40;82.50;;;;;;5015293;28;20036;-72
2023/04/05 04:08:08;;;;;;;15.30;11.77;;;9.30;82.30;;;;;;5014978;28;20033;-71
2023/04/05 04:10:34;;;;;;;17.25;11.73;;;9.30;82.30;;;;;;5014957;28;20032;-71
2023/04/05 04:12:59;;;;;;;17.42;11.82;;;9.30;82.60;;;;;;5014752;28;20044;-70
2023/04/05 04:15:25;;;;;;;16.23;11.38;;;9.30;82.70;;;;;;5014794;28;20034;-71
2023/04/05 04:17:51;;;;;;;16.20;11.07;;;9.30;82.70;;;;;;5014960;28;20033;-70
2023/04/05 04:20:16;;;;;;;14.50;10.73;;;9.30;82.60;;;;;;5014610;28;20045;-72
2023/04/05 04:22:42;;;;;;;14.63;11.23;;;9.30;82.80;;;;;;5015402;28;20481;-71
2023/04/05 04:25:09;;;;;;;18.77;11.20;;;9.20;82.90;;;;;;4996969;28;20034;-72
2023/04/05 04:27:38;;;;;;;19.30;11.73;;;9.20;82.90;;;;;;5014501;28;20018;-72
2023/04/05 04:30:06;;;;;;;16.77;12.18;;;9.20;82.70;;;;;;5013084;28;20471;-72
2023/04/05 04:32:51;;;;;;;15.77;12.35;;;9.20;83.00;;;;;;5013209;28;20108;-71
2023/04/05 04:35:23;;;;;;;15.85;11.30;;;9.20;82.80;;;;;;5011161;28;20026;-73
2023/04/05 04:38:06;;;;;;;16.80;12.10;;;9.10;83.00;;;;;;5014215;28;20524;-72
2023/04/05 04:40:38;;;;;;;18.48;12.52;;;9.20;83.00;;;;;;5013879;28;20029;-71
2023/04/05 04:43:18;;;;;;;15.38;11.95;;;9.10;83.00;;;;;;5010790;28;20061;-71
2023/04/05 04:45:48;;;;;;;17.58;12.70;;;9.10;82.90;;;;;;5014134;28;20022;-71
2023/04/05 04:48:15;;;;;;;17.48;13.45;;;9.10;82.80;;;;;;5012938;28;20034;-71
2023/04/05 04:50:42;;;;;;;16.60;12.13;;;9.00;83.00;;;;;;5012194;28;20021;-72
2023/04/05 04:53:09;;;;;;;23.60;13.80;;;9.10;83.10;;;;;;5012055;28;20042;-71
2023/04/05 04:55:35;;;;;;;22.35;14.15;;;9.10;83.20;;;;;;5012927;28;20030;-69
2023/04/05 04:58:08;;;;;;;15.82;12.65;;;9.10;83.10;;;;;;5013197;28;20387;-71
2023/04/05 05:00:34;;;;;;;18.13;13.75;;;9.20;82.80;;;;;;5012497;28;20025;-70
2023/04/05 05:03:00;;;;;;;19.67;13.55;;;9.20;82.80;;;;;;5013534;28;20026;-70
2023/04/05 05:05:26;;;;;;;17.80;12.45;;;9.20;82.90;;;;;;5012102;28;20092;-70
2023/04/05 05:07:52;;;;;;;22.02;11.70;;;9.00;83.60;;;;;;5011537;28;20022;-68
2023/04/05 05:10:18;;;;;;;14.75;11.40;;;8.80;84.40;;;;;;5012711;28;20030;-69
2023/04/05 05:12:44;;;;;;;17.77;11.95;;;8.80;84.90;;;;;;4996362;28;20037;-70
2023/04/05 05:15:11;;;;;;;16.13;11.73;;;8.80;84.80;;;;;;5013702;28;20033;-70
2023/04/05 05:17:38;;;;;;;17.98;11.27;;;8.80;84.60;;;;;;5013934;28;20364;-69
2023/04/05 05:20:05;;;;;;;17.67;11.45;;;8.80;84.60;;;;;;5013894;28;20089;-70
2023/04/05 05:22:31;;;;;;;22.90;11.80;;;8.70;84.90;;;;;;5013636;28;20026;-70
2023/04/05 05:24:56;;;;;;;16.90;11.68;;;8.70;85.90;;;;;;5013340;28;20026;-70
2023/04/05 05:27:22;;;;;;;16.42;12.73;;;8.70;85.40;;;;;;5013621;28;20493;-69
2023/04/05 05:29:47;;;;;;;19.25;12.32;;;8.70;85.40;;;;;;5013649;28;20026;-70
2023/04/05 05:32:15;;;;;;;16.90;12.20;;;8.70;85.20;;;;;;5013320;28;20026;-70
2023/04/05 05:34:43;;;;;;;21.98;13.13;;;8.70;85.30;;;;;;5013415;28;20479;-68
2023/04/05 05:37:11;;;;;;;16.35;12.25;;;8.80;85.40;;;;;;5013558;28;20104;-69
2023/04/05 05:39:36;;;;;;;19.33;13.73;;;8.70;85.40;;;;;;5013286;28;20076;-69
2023/04/05 05:42:02;;;;;;;20.40;12.85;;;8.70;85.40;;;;;;5013297;28;20113;-69
2023/04/05 05:44:28;;;;;;;17.38;11.85;;;8.70;85.30;;;;;;5013320;28;20030;-68
2023/04/05 05:46:54;;;;;;;14.93;12.55;;;8.70;86.00;;;;;;5013095;28;20029;-71
2023/04/05 05:49:20;;;;;;;17.17;12.20;;;8.80;85.50;;;;;;5013259;28;20038;-70
2023/04/05 05:51:46;;;;;;;19.80;12.13;;;8.80;85.50;;;;;;5012719;28;20030;-69
2023/04/05 05:54:12;;;;;;;22.27;16.50;;;8.80;84.70;;;;;;5013044;28;20824;-71
2023/04/05 05:56:37;;;;;;;22.27;15.75;;;8.80;84.40;;;;;;5013206;28;20037;-70
2023/04/05 05:59:03;;;;;;;19.95;15.02;;;8.80;84.60;;;;;;5013127;28;20489;-70
2023/04/05 06:01:28;;;;;;;20.33;15.27;;;8.80;85.00;;;;;;5012901;28;20030;-69
2023/04/05 06:03:54;;;;;;;21.13;14.95;;;8.80;85.70;;;;;;5012902;28;20022;-69
2023/04/05 06:06:22;;;;;;;19.50;14.05;;;8.80;85.10;;;;;;5013003;28;20050;-68
2023/04/05 06:08:48;;;;;;;20.83;16.02;;;8.80;85.20;;;;;;5012721;28;20049;-70
2023/04/05 06:11:24;;;;;;;21.02;15.60;;;8.80;85.80;;;;;;5012890;28;20030;-70
2023/04/05 06:13:55;;;;;;;21.33;15.65;;;9.00;86.70;;;;;;5012933;28;20030;-71
2023/04/05 06:16:21;;;;;;;25.08;16.50;;;9.00;86.90;;;;;;5012757;28;20391;-69
2023/04/05 06:18:48;;;;;;;21.90;16.23;;;9.10;86.90;;;;;;4995365;28;20053;-70
2023/04/05 06:21:14;;;;;;;20.30;15.18;;;9.20;86.60;;;;;;5012648;28;20026;-69
2023/04/05 06:23:43;;;;;;;23.27;15.10;;;9.30;86.50;;;;;;5012609;28;20434;-71
2023/04/05 06:26:17;;;;;;;20.02;14.90;;;9.40;86.20;;;;;;4995083;28;20036;-70
2023/04/05 06:28:43;;;;;;;20.58;15.73;;;9.40;85.60;;;;;;5012863;28;20018;-69
2023/04/05 06:31:08;;;;;;;23.83;14.50;;;9.50;85.30;;;;;;5012618;28;20462;-70
2023/04/05 06:33:34;;;;;;;26.73;15.30;;;9.50;85.00;;;;;;5012582;28;20498;-72
2023/04/05 06:36:00;;;;;;;19.13;14.52;;;9.60;84.90;;;;;;5012687;28;20084;-69
2023/04/05 06:38:25;;;;;;;19.25;14.40;;;9.60;84.70;;;;;;5012384;28;20029;-71
2023/04/05 06:40:51;;;;;;;19.58;14.75;;;9.60;84.40;;;;;;5012552;28;20448;-69
2023/04/05 06:43:16;;;;;;;22.33;13.85;;;9.70;84.40;;;;;;5012665;28;20080;-69
2023/04/05 06:45:42;;;;;;;18.35;14.38;;;9.80;84.40;;;;;;5012769;28;20026;-69
2023/04/05 06:48:08;;;;;;;22.13;14.40;;;9.80;84.40;;;;;;5012392;28;20018;-70
2023/04/05 06:50:33;;;;;;;21.45;14.27;;;9.90;84.10;;;;;;5012592;28;20135;-71
2023/04/05 06:52:59;;;;;;;24.15;15.32;;;9.90;83.70;;;;;;5012004;28;20050;-70
2023/04/05 06:55:24;;;;;;;23.10;17.23;;;9.90;83.50;;;;;;5012632;28;20033;-72
2023/04/05 06:57:50;;;;;;;17.85;14.52;;;10.00;83.90;;;;;;4994897;28;20408;-70
2023/04/05 07:00:16;;;;;;;20.33;14.63;;;10.10;83.60;;;;;;5012462;28;20538;-72
2023/04/05 07:02:42;;;;;;;19.63;15.85;;;10.10;83.70;;;;;;5014012;28;20506;-71
2023/04/05 07:05:08;;;;;;;17.85;13.00;;;10.10;82.30;;;;;;5016260;28;20018;-70
2023/04/05 07:07:38;;;;;;;20.65;14.40;;;10.10;82.20;;;;;;5015966;28;20057;-72
2023/04/05 07:10:04;;;;;;;21.20;13.45;;;10.20;81.90;;;;;;5016287;28;20104;-72
2023/04/05 07:12:30;;;;;;;20.58;13.73;;;10.20;82.50;;;;;;5016067;28;20499;-72
2023/04/05 07:14:57;;;;;;;18.70;12.65;;;10.30;82.30;;;;;;4998358;28;20022;-69
2023/04/05 07:17:23;;;;;;;21.85;13.13;;;10.30;83.00;;;;;;5016077;28;20038;-71
2023/04/05 07:19:48;;;;;;;16.85;13.50;;;10.40;82.50;;;;;;5015572;28;20076;-71
2023/04/05 07:22:14;;;;;;;19.17;13.55;;;10.40;82.70;;;;;;5015922;28;20607;-71
2023/04/05 07:24:40;;;;;;;20.40;13.95;;;10.40;82.50;;;;;;4996767;28;20475;-71
2023/04/05 07:27:05;;;;;;;16.50;12.88;;;10.50;82.10;;;;;;5013680;28;20080;-72
2023/04/05 07:29:31;;;;;;;21.55;13.43;;;10.50;82.30;;;;;;5014578;28;20475;-71
2023/04/05 07:31:56;;;;;;;19.60;12.00;;;10.60;81.40;;;;;;4994779;28;20041;-70
2023/04/05 07:34:22;;;;;;;16.77;10.93;;;10.60;81.60;;;;;;5014994;28;20391;-69
2023/04/05 07:36:49;;;;;;;15.98;10.20;;;10.70;82.20;;;;;;5012766;28;20064;-70
2023/04/05 07:39:14;;;;;;;17.65;11.80;;;10.70;82.40;;;;;;5014459;28;20025;-72
2023/04/05 07:41:40;;;;;;;20.52;12.43;;;10.80;81.30;;;;;;5014301;28;20022;-71
2023/04/05 07:44:06;;;;;;;14.40;11.15;;;10.80;80.10;;;;;;5010725;28;20033;-70
2023/04/05 07:46:31;;;;;;;13.30;11.63;;;10.90;80.70;;;;;;5024571;28;20435;-70
2023/04/05 07:48:57;;;;;;;13.60;9.75;;;10.90;80.70;;;;;;5020679;28;20026;-70
2023/04/05 07:51:22;;;;;;;12.50;9.02;;;11.10;80.30;;;;;;5012937;28;20072;-71
2023/04/05 07:53:48;;;;;;;14.25;10.20;;;11.20;81.40;;;;;;4992165;28;20057;-71
2023/04/05 07:56:14;;;;;;;16.52;9.55;;;11.30;80.00;;;;;;5012315;28;20113;-71
2023/04/05 07:58:40;;;;;;;12.10;9.93;;;11.40;80.40;;;;;;5028269;28;20017;-70
2023/04/05 08:01:08;;;;;;;10.63;7.40;;;11.50;80.60;;;;;;5016585;28;20040;-69
2023/04/05 08:03:34;;;;;;;12.73;9.35;;;11.60;80.70;;;;;;5024152;28;20053;-72
2023/04/05 08:06:16;;;;;;;13.35;8.77;;;11.70;79.20;;;;;;5014805;28;20042;-70
2023/04/05 08:08:42;;;;;;;17.45;8.75;;;11.80;79.30;;;;;;5015079;28;20046;-71
2023/04/05 08:11:08;;;;;;;14.45;10.02;;;11.80;77.50;;;;;;5013240;28;20116;-70
2023/04/05 08:13:35;;;;;;;13.98;8.82;;;11.90;76.40;;;;;;5013501;28;20062;-71
2023/04/05 08:16:01;;;;;;;12.50;9.27;;;11.90;77.30;;;;;;5014393;28;20479;-70
2023/04/05 08:18:27;;;;;;;12.73;8.98;;;12.00;76.60;;;;;;5026843;28;20120;-71
2023/04/05 08:20:53;;;;;;;17.30;9.23;;;12.00;76.60;;;;;;5026987;28;20121;-69
2023/04/05 08:23:19;;;;;;;11.43;8.02;;;12.10;77.20;;;;;;5013430;28;20033;-70
2023/04/05 08:25:45;;;;;;;9.50;6.80;;;12.20;78.30;;;;;;5010699;28;20399;-70
2023/04/05 08:28:11;;;;;;;12.55;7.47;;;12.20;78.10;;;;;;5020516;28;20033;-69
2023/04/05 08:30:38;;;;;;;12.02;7.57;;;12.40;76.60;;;;;;5019890;28;20033;-70
2023/04/05 08:33:03;;;;;;;12.05;7.57;;;12.40;76.60;;;;;;5027754;28;20041;-70
2023/04/05 08:35:30;;;;;;;10.57;7.50;;;12.50;78.70;;;;;;5015197;28;20017;-69
2023/04/05 08:37:55;;;;;;;10.38;7.53;;;12.60;76.50;;;;;;5025501;28;20029;-71
2023/04/05 08:40:25;;;;;;;10.93;7.00;;;12.60;75.30;;;;;;5018447;28;20387;-69
2023/04/05 08:43:07;;;;;;;7.68;5.28;;;12.60;78.40;;;;;;5014343;28;20018;-69
2023/04/05 08:45:35;;;;;;;11.30;6.13;;;12.70;78.70;;;;;;5014236;28;20236;-70
2023/04/05 08:48:01;;;;;;;10.90;7.07;;;12.70;76.20;;;;;;5006980;28;20052;-70
2023/04/05 08:50:26;;;;;;;11.88;7.57;;;12.70;73.70;;;;;;5015883;28;20140;-71
2023/04/05 08:52:52;;;;;;;10.18;7.40;;;12.80;74.90;;;;;;5017275;28;20487;-70
2023/04/05 08:55:17;;;;;;;10.45;5.85;;;12.80;73.40;;;;;;5015843;28;20041;-69
2023/04/05 08:57:50;;;;;;;10.65;7.28;;;12.90;75.60;;;;;;4999467;28;20140;-70
2023/04/05 09:00:16;;;;;;;6.93;4.03;;;12.90;74.70;;;;;;5015266;28;20033;-70
2023/04/05 09:02:47;;;;;;;13.27;7.82;;;13.00;76.20;;;;;;5012931;28;20034;-70
2023/04/05 09:05:14;;;;;;;13.77;9.32;;;13.00;74.50;;;;;;5011316;28;20014;-69
2023/04/05 09:07:41;;;;;;;9.13;7.72;;;13.00;72.30;;;;;;5021289;28;20440;-68
2023/04/05 09:10:07;;;;;;;11.27;8.10;;;13.10;71.90;;;;;;5027626;28;20029;-69
2023/04/05 09:12:34;;;;;;;10.93;7.18;;;13.00;72.50;;;;;;5015612;28;20479;-68
2023/04/05 09:15:00;;;;;;;11.45;8.30;;;13.10;72.70;;;;;;5012329;28;20364;-68
2023/04/05 09:17:27;;;;;;;11.43;7.82;;;13.10;71.50;;;;;;5012954;28;20038;-68
2023/04/05 09:19:53;;;;;;;10.82;7.90;;;13.10;71.60;;;;;;5009714;28;20379;-72
2023/04/05 09:22:21;;;;;;;13.50;7.82;;;13.10;71.60;;;;;;5009258;28;20030;-73
2023/04/05 09:24:47;;;;;;;11.45;6.32;;;13.10;74.10;;;;;;5012583;28;20105;-70
2023/04/05 09:27:14;;;;;;;14.90;7.43;;;13.10;75.10;;;;;;5013290;28;20593;-72
2023/04/05 09:29:43;;;;;;;8.05;5.07;;;13.20;74.80;;;;;;5012403;28;20026;-72
2023/04/05 09:32:10;;;;;;;12.85;7.63;;;13.20;75.50;;;;;;5012264;28;20056;-71
2023/04/05 09:34:37;;;;;;;11.45;7.10;;;13.20;74.80;;;;;;5013020;28;20026;-72
2023/04/05 09:37:13;;;;;;;16.50;8.10;;;13.20;75.20;;;;;;5015489;28;20383;-73
2023/04/05 09:39:39;;;;;;;12.65;8.52;;;13.20;72.70;;;;;;5011240;28;20022;-73
2023/04/05 09:42:05;;;;;;;8.48;5.93;;;13.20;70.60;;;;;;5011974;28;20036;-72
2023/04/05 09:44:50;;;;;;;6.20;3.53;;;13.20;73.80;;;;;;4990650;28;20069;-72
2023/04/05 09:47:18;;;;;;;4.82;3.33;;;13.30;75.70;;;;;;5000581;28;20022;-72
2023/04/05 09:49:44;;;;;;;10.27;5.40;;;13.30;76.40;;;;;;4986415;28;20029;-72
2023/04/05 09:52:24;;;;;;;11.25;7.25;;;13.30;76.10;;;;;;5002884;28;20033;-73
2023/04/05 09:54:52;;;;;;;14.57;6.50;;;13.30;74.80;;;;;;4986839;28;20042;-72
2023/04/05 09:57:18;;;;;;;16.63;8.30;;;13.30;75.20;;;;;;5002960;28;21194;-71
2023/04/05 09:59:47;;;;;;;15.02;8.75;;;13.30;72.40;;;;;;5012372;28;20521;-71
2023/04/05 10:02:13;;;;;;;14.18;10.23;;;13.30;72.20;;;;;;5005790;28;20061;-72
2023/04/05 10:04:40;;;;;;;13.88;11.35;;;13.40;69.10;;;;;;5011077;28;20053;-71
2023/04/05 10:07:12;;;;;;;16.73;10.93;;;13.30;67.60;;;;;;5007956;28;20032;-71
2023/04/05 10:09:42;;;;;;;12.65;8.35;;;13.30;67.10;;;;;;5014676;28;20754;-71
2023/04/05 10:12:12;;;;;;;13.48;7.07;;;13.30;70.50;;;;;;5004127;28;20114;-72
2023/04/05 10:14:38;;;;;;;13.25;9.07;;;13.30;72.30;;;;;;5020483;28;20022;-71
2023/04/05 10:17:26;;;;;;;20.42;9.23;;;13.40;72.60;;;;;;5011765;28;20144;-72
2023/04/05 10:20:18;;;;;;;16.23;10.30;;;13.50;74.40;;;;;;5014111;28;20026;-72
2023/04/05 10:23:10;;;;;;;21.07;7.83;;;13.40;69.30;;;;;;4996913;28;20050;-72
2023/04/05 10:25:51;;;;;;;23.98;10.75;;;13.40;73.20;;;;;;5008853;28;20022;-71
2023/04/05 10:28:31;;;;;;;15.10;7.80;;;13.40;72.10;;;;;;5012334;28;20728;-71
2023/04/05 10:31:01;;;;;;;18.45;10.80;;;13.50;74.90;;;;;;5017975;28;20033;-71
2023/04/05 10:33:32;;;;;;;15.45;8.23;;;13.50;72.10;;;;;;5014352;28;20794;-70
2023/04/05 10:36:36;;;;;;;15.80;10.18;;;13.50;77.20;;;;;;5014677;28;20447;-71
2023/04/05 10:39:15;;;;;;;14.00;10.45;;;13.60;75.40;;;;;;5022434;28;20061;-71
2023/04/05 10:41:46;;;;;;;20.85;9.65;;;13.60;69.60;;;;;;5021181;28;20113;-72
2023/04/05 10:44:13;;;;;;;15.75;8.75;;;13.60;75.30;;;;;;5024580;28;20037;-71
2023/04/05 10:46:40;;;;;;;17.33;7.50;;;13.60;75.30;;;;;;5018760;28;20057;-71
2023/04/05 10:49:20;;;;;;;16.08;9.35;;;13.70;79.40;;;;;;5025456;28;20064;-71
2023/04/05 10:51:46;;;;;;;14.98;9.07;;;13.70;76.90;;;;;;5020803;28;20140;-71
2023/04/05 10:54:12;;;;;;;15.57;9.52;;;13.70;74.20;;;;;;5013955;28;20029;-71
2023/04/05 10:56:39;;;;;;;13.80;10.00;;;13.70;73.00;;;;;;5017164;28;20028;-71
2023/04/05 10:59:07;;;;;;;14.05;10.15;;;13.80;70.30;;;;;;4999047;28;20026;-71
2023/04/05 11:01:33;;;;;;;12.20;9.63;;;13.70;71.10;;;;;;5019615;28;20092;-70
2023/04/05 11:04:09;;;;;;;13.27;10.48;;;13.80;70.70;;;;;;5015179;28;20507;-71
2023/04/05 11:06:35;;;;;;;19.27;10.30;;;13.80;67.70;;;;;;5021349;28;20037;-72
2023/04/05 11:09:10;;;;;;;14.73;9.48;;;13.80;69.70;;;;;;5016146;28;20033;-72
2023/04/05 11:11:43;;;;;;;19.70;5.68;;;13.80;71.00;;;;;;4997327;28;20030;-73
2023/04/05 11:14:24;;;;;;;12.77;5.78;;;13.80;78.90;;;;;;5014607;28;20038;-71
2023/04/05 11:16:53;;;;;;;20.15;9.07;;;13.90;78.20;;;;;;4999278;28;20057;-73
2023/04/05 11:19:19;;;;;;;13.05;8.13;;;13.90;74.00;;;;;;5013143;28;20022;-72
2023/04/05 11:21:45;;;;;;;18.35;11.00;;;14.00;72.80;;;;;;5014932;28;20112;-73
2023/04/05 11:24:15;;;;;;;13.55;9.18;;;13.90;68.70;;;;;;5012052;28;20029;-72
2023/04/05 11:26:47;;;;;;;10.70;5.70;;;13.90;69.10;;;;;;5008518;28;20483;-72
2023/04/05 11:29:14;;;;;;;16.17;10.75;;;13.90;75.70;;;;;;5012721;28;20112;-72
2023/04/05 11:32:12;;;;;;;12.60;9.85;;;13.90;69.80;;;;;;5014353;28;20066;-72
2023/04/05 11:34:41;;;;;;;15.85;11.38;;;13.90;68.70;;;;;;5002983;28;20095;-72
2023/04/05 11:37:06;;;;;;;14.07;10.93;;;13.90;66.90;;;;;;5013527;28;20112;-72
2023/04/05 11:39:32;;;;;;;13.85;11.48;;;13.90;67.20;;;;;;5013838;28;20601;-72
2023/04/05 11:42:02;;;;;;;13.85;10.60;;;13.90;67.40;;;;;;5007715;28;20472;-73
2023/04/05 11:44:42;;;;;;;13.60;11.18;;;14.00;66.70;;;;;;5020997;28;20045;-68
2023/04/05 11:47:10;;;;;;;15.75;10.73;;;13.90;65.80;;;;;;5013385;28;20116;-73
2023/04/05 11:49:37;;;;;;;13.32;9.18;;;13.90;66.50;;;;;;5007169;28;20469;-73
2023/04/05 11:52:16;;;;;;;14.88;8.93;;;13.90;71.00;;;;;;5013544;28;20065;-71
2023/04/05 11:54:45;;;;;;;13.98;9.70;;;14.00;72.00;;;;;;5013142;28;20026;-66
2023/04/05 11:57:13;;;;;;;14.05;9.48;;;14.00;67.90;;;;;;5010532;28;20033;-71
2023/04/05 11:59:39;;;;;;;14.88;9.25;;;14.00;69.40;;;;;;5016478;28;20026;-71
2023/04/05 12:02:06;;;;;;;13.23;8.10;;;14.00;69.20;;;;;;5013896;28;20072;-69
2023/04/05 12:04:34;;;;;;;11.70;9.25;;;14.10;69.80;;;;;;5014445;28;20022;-69
2023/04/05 12:07:17;;;;;;;10.88;6.03;;;14.10;70.50;;;;;;5012358;28;20164;-66
2023/04/05 12:10:01;;;;;;;9.95;6.60;;;14.10;72.70;;;;;;5014377;28;20499;-70
2023/04/05 12:12:32;;;;;;;10.88;7.93;;;14.20;71.40;;;;;;5014333;28;20046;-70
2023/04/05 12:14:59;;;;;;;11.13;6.82;;;14.20;69.80;;;;;;5011580;28;20057;-66
2023/04/05 12:17:44;;;;;;;12.00;8.10;;;14.20;69.20;;;;;;5014783;28;20034;-72
2023/04/05 12:20:12;;;;;;;10.50;6.00;;;14.20;68.80;;;;;;5016707;28;20493;-67
2023/04/05 12:22:40;;;;;;;7.75;3.50;;;14.20;70.90;;;;;;5014991;28;20030;-71
2023/04/05 12:25:06;;;;;;;9.18;3.72;;;14.20;73.40;;;;;;5014414;28;20036;-67
2023/04/05 12:27:32;;;;;;;15.90;10.98;;;14.30;73.60;;;;;;5019971;28;20068;-70
2023/04/05 12:30:17;;;;;;;13.60;10.90;;;14.30;66.80;;;;;;5012942;28;20030;-67
2023/04/05 12:32:45;;;;;;;8.98;3.67;;;14.30;66.40;;;;;;5013157;28;20029;-70
2023/04/05 12:35:31;;;;;;;5.40;2.83;;;14.30;72.30;;;;;;5016101;28;20036;-71
2023/04/05 12:37:58;;;;;;;8.30;6.13;;;14.40;73.50;;;;;;5011876;28;20022;-71
2023/04/05 12:40:24;;;;;;;13.80;10.20;;;14.30;72.10;;;;;;5012736;28;20021;-70